Time;durP1;ratioP1;P1;durP2;ratioP2;P2;SDS_P1;SDS_P2;PMS_P1;PMS_P2;Temp;Humidity;BMP_temperature;BMP_pressure;BME280_temperature;BME280_humidity;BME280_pressure;Samples;Min_cycle;Max_cycle;Signal;HPM_P1;HPM_P2
2021/07/01 00:00:19;;;;;;;20.08;10.55;;;;;;;;;;5022997;28;20178;-71
2021/07/01 00:02:45;;;;;;;33.00;11.77;;;;;;;;;;5022762;28;20186;-70
2021/07/01 00:05:11;;;;;;;21.25;9.85;;;;;;;;;;5029681;28;20747;-71
2021/07/01 00:07:37;;;;;;;26.60;11.43;;;;;;;;;;5029475;28;20196;-70
2021/07/01 00:10:10;;;;;;;24.85;10.55;;;;;;;;;;5023155;28;20253;-70
2021/07/01 00:12:35;;;;;;;18.30;9.68;;;;;;;;;;5022142;28;20186;-70
2021/07/01 00:15:00;;;;;;;19.25;10.93;;;;;;;;;;5024555;28;20205;-70
2021/07/01 00:26:34;;;;;;;25.67;10.82;;;;;;;;;;5025704;28;20421;-72
2021/07/01 00:28:59;;;;;;;22.67;9.70;;;;;;;;;;5011985;28;20190;-72
2021/07/01 00:31:24;;;;;;;21.45;9.95;;;;;;;;;;5024913;28;20273;-72
2021/07/01 00:33:49;;;;;;;24.30;10.60;;;;;;;;;;5028565;28;20202;-72
2021/07/01 00:36:15;;;;;;;19.73;9.80;;;;;;;;;;5031317;28;20188;-72
2021/07/01 00:38:40;;;;;;;20.30;9.85;;;;;;;;;;5025106;28;20186;-72
2021/07/01 00:41:05;;;;;;;25.90;10.68;;;;;;;;;;5028520;28;20186;-72
2021/07/01 00:43:30;;;;;;;21.42;9.85;;;;;;;;;;5028118;28;20228;-72
2021/07/01 00:45:55;;;;;;;21.02;11.10;;;;;;;;;;5030684;28;20660;-72
2021/07/01 00:48:20;;;;;;;16.30;9.30;;;;;;;;;;5028739;28;20230;-71
2021/07/01 00:50:46;;;;;;;22.27;9.48;;;;;;;;;;5029868;28;20273;-72
2021/07/01 00:53:11;;;;;;;20.35;9.73;;;;;;;;;;5031373;28;20175;-72
2021/07/01 00:55:37;;;;;;;19.67;9.82;;;;;;;;;;5028568;28;20190;-72
2021/07/01 00:58:02;;;;;;;23.33;9.52;;;;;;;;;;5031331;28;20174;-72
2021/07/01 01:00:43;;;;;;;22.88;9.45;;;;;;;;;;5027557;28;20179;-72
2021/07/01 01:03:08;;;;;;;21.80;8.25;;;;;;;;;;5020361;28;20186;-71
2021/07/01 01:05:34;;;;;;;18.50;8.32;;;;;;;;;;5027320;28;20209;-72
2021/07/01 01:07:59;;;;;;;17.63;8.75;;;;;;;;;;5026057;28;20206;-72
2021/07/01 01:10:25;;;;;;;27.45;11.05;;;;;;;;;;5029486;28;20182;-72
2021/07/01 01:12:50;;;;;;;16.80;8.20;;;;;;;;;;5029197;28;20236;-72
2021/07/01 01:15:15;;;;;;;18.15;8.05;;;;;;;;;;5022298;28;20194;-72
2021/07/01 01:17:46;;;;;;;28.65;8.50;;;;;;;;;;5018425;28;20171;-72
2021/07/01 01:20:12;;;;;;;18.02;8.25;;;;;;;;;;5022694;28;20178;-72
2021/07/01 01:22:37;;;;;;;13.20;7.43;;;;;;;;;;5031680;28;20337;-72
2021/07/01 01:25:03;;;;;;;19.45;8.75;;;;;;;;;;5029318;28;20210;-72
2021/07/01 01:27:29;;;;;;;19.30;8.38;;;;;;;;;;5022713;28;20193;-73
2021/07/01 01:29:54;;;;;;;15.63;7.70;;;;;;;;;;5031974;28;20209;-72
2021/07/01 01:32:19;;;;;;;14.52;8.52;;;;;;;;;;5027660;28;20621;-72
2021/07/01 01:34:44;;;;;;;17.52;8.65;;;;;;;;;;5024736;28;20198;-72
2021/07/01 01:37:09;;;;;;;19.95;9.65;;;;;;;;;;5029833;28;20174;-72
2021/07/01 01:39:35;;;;;;;17.00;8.45;;;;;;;;;;5023252;28;20706;-72
2021/07/01 01:42:00;;;;;;;20.77;10.23;;;;;;;;;;5029060;28;20241;-72
2021/07/01 01:44:25;;;;;;;20.35;9.90;;;;;;;;;;5029162;28;20202;-72
2021/07/01 01:46:51;;;;;;;17.17;9.55;;;;;;;;;;5031569;28;20186;-72
2021/07/01 01:49:17;;;;;;;25.48;10.25;;;;;;;;;;5025176;28;20222;-72
2021/07/01 01:51:42;;;;;;;24.30;9.70;;;;;;;;;;5030194;28;20186;-72
2021/07/01 01:54:08;;;;;;;21.77;10.53;;;;;;;;;;5028316;28;20190;-72
2021/07/01 01:56:37;;;;;;;22.60;10.68;;;;;;;;;;5026017;28;20921;-72
2021/07/01 01:59:06;;;;;;;17.42;9.52;;;;;;;;;;5024374;28;20214;-73
2021/07/01 02:01:32;;;;;;;20.65;11.15;;;;;;;;;;5027395;28;20213;-72
2021/07/01 02:03:57;;;;;;;20.42;9.75;;;;;;;;;;5018822;28;20233;-72
2021/07/01 02:06:22;;;;;;;18.13;9.32;;;;;;;;;;5030004;28;20260;-72
2021/07/01 02:08:48;;;;;;;25.98;10.13;;;;;;;;;;5020533;28;20423;-72
2021/07/01 02:11:13;;;;;;;23.80;11.05;;;;;;;;;;5022172;28;20217;-72
2021/07/01 02:13:38;;;;;;;18.27;9.07;;;;;;;;;;5025709;28;20700;-72
2021/07/01 02:16:03;;;;;;;22.15;9.02;;;;;;;;;;5024201;28;20391;-72
2021/07/01 02:18:28;;;;;;;17.00;8.43;;;;;;;;;;5018349;28;20193;-72
2021/07/01 02:20:54;;;;;;;18.90;9.00;;;;;;;;;;5029660;28;20225;-72
2021/07/01 02:23:19;;;;;;;19.73;8.77;;;;;;;;;;5030490;28;20430;-72
2021/07/01 02:25:44;;;;;;;17.95;8.68;;;;;;;;;;5028376;28;20185;-72
2021/07/01 02:28:09;;;;;;;17.25;10.68;;;;;;;;;;5026980;28;20194;-72
2021/07/01 02:30:34;;;;;;;13.93;9.15;;;;;;;;;;5025990;28;20580;-72
2021/07/01 02:32:59;;;;;;;15.02;10.43;;;;;;;;;;5019669;28;20456;-72
2021/07/01 02:35:25;;;;;;;21.10;10.38;;;;;;;;;;5022617;28;20221;-73
2021/07/01 02:37:50;;;;;;;14.05;9.80;;;;;;;;;;5027895;28;20265;-72
2021/07/01 02:40:15;;;;;;;18.55;10.35;;;;;;;;;;5022601;28;20313;-72
2021/07/01 02:42:42;;;;;;;23.52;12.90;;;;;;;;;;5028021;28;20218;-72
2021/07/01 02:45:08;;;;;;;24.00;11.55;;;;;;;;;;5026792;28;20293;-72
2021/07/01 02:47:33;;;;;;;26.88;13.27;;;;;;;;;;5027703;28;20329;-72
2021/07/01 02:49:58;;;;;;;24.40;12.23;;;;;;;;;;5025575;28;20186;-72
2021/07/01 02:52:23;;;;;;;23.73;11.27;;;;;;;;;;5025331;28;20411;-72
2021/07/01 02:54:48;;;;;;;24.35;13.00;;;;;;;;;;5022723;28;20454;-72
2021/07/01 02:57:14;;;;;;;20.67;10.75;;;;;;;;;;5030291;28;20265;-72
2021/07/01 02:59:39;;;;;;;27.02;11.98;;;;;;;;;;5021101;28;20596;-72
2021/07/01 03:02:04;;;;;;;20.55;11.75;;;;;;;;;;5023305;28;20255;-72
2021/07/01 03:04:29;;;;;;;18.52;12.32;;;;;;;;;;5015903;28;20238;-72
2021/07/01 03:06:54;;;;;;;22.23;11.85;;;;;;;;;;5024537;28;20214;-72
2021/07/01 03:09:20;;;;;;;24.17;10.57;;;;;;;;;;5018794;28;20206;-72
2021/07/01 03:11:45;;;;;;;19.00;10.82;;;;;;;;;;5034699;28;20212;-72
2021/07/01 03:14:10;;;;;;;22.83;11.25;;;;;;;;;;5046231;28;20243;-72
2021/07/01 03:16:35;;;;;;;21.73;11.00;;;;;;;;;;5043540;28;20461;-72
2021/07/01 03:19:00;;;;;;;18.42;10.10;;;;;;;;;;5046605;28;20178;-72
2021/07/01 03:21:26;;;;;;;20.80;10.23;;;;;;;;;;5049962;28;20255;-72
2021/07/01 03:23:51;;;;;;;18.63;8.82;;;;;;;;;;5047606;28;20553;-72
2021/07/01 03:26:17;;;;;;;21.17;10.10;;;;;;;;;;5042802;28;20189;-72
2021/07/01 03:28:42;;;;;;;16.52;9.82;;;;;;;;;;5046545;28;20218;-72
2021/07/01 03:31:08;;;;;;;20.73;10.60;;;;;;;;;;5045267;28;20182;-72
2021/07/01 03:33:33;;;;;;;20.55;9.20;;;;;;;;;;5033846;28;20178;-72
2021/07/01 03:35:59;;;;;;;20.75;8.98;;;;;;;;;;5030111;28;20702;-72
2021/07/01 03:38:24;;;;;;;14.32;7.93;;;;;;;;;;5034688;28;20244;-72
2021/07/01 03:40:49;;;;;;;22.77;8.98;;;;;;;;;;5026092;28;20221;-72
2021/07/01 03:43:15;;;;;;;17.35;8.35;;;;;;;;;;5027285;28;20265;-72
2021/07/01 03:45:40;;;;;;;18.42;9.57;;;;;;;;;;5035769;28;20201;-72
2021/07/01 03:48:05;;;;;;;14.27;8.43;;;;;;;;;;5027651;28;20198;-72
2021/07/01 03:50:30;;;;;;;15.65;8.63;;;;;;;;;;5023261;28;20313;-72
2021/07/01 03:52:56;;;;;;;14.32;7.80;;;;;;;;;;5033138;28;20179;-72
2021/07/01 03:55:21;;;;;;;17.42;7.90;;;;;;;;;;5026408;28;20198;-72
2021/07/01 03:57:46;;;;;;;16.38;8.95;;;;;;;;;;5029316;28;20209;-72
2021/07/01 04:00:12;;;;;;;20.33;9.20;;;;;;;;;;5027076;28;20591;-72
2021/07/01 04:02:37;;;;;;;21.92;8.63;;;;;;;;;;5029876;28;20185;-71
2021/07/01 04:05:03;;;;;;;19.95;8.55;;;;;;;;;;5019424;28;20191;-71
2021/07/01 04:07:28;;;;;;;20.83;9.00;;;;;;;;;;5025155;28;20187;-72
2021/07/01 04:09:53;;;;;;;16.80;8.77;;;;;;;;;;5028221;28;20269;-72
2021/07/01 04:12:19;;;;;;;17.00;9.05;;;;;;;;;;5026742;28;20548;-72
2021/07/01 04:14:44;;;;;;;15.43;8.32;;;;;;;;;;5025429;28;20590;-71
2021/07/01 04:17:10;;;;;;;19.10;8.57;;;;;;;;;;5024399;28;20174;-71
2021/07/01 04:19:35;;;;;;;16.83;9.25;;;;;;;;;;5029332;28;20174;-71
2021/07/01 04:22:00;;;;;;;18.20;9.02;;;;;;;;;;5030548;28;20685;-71
2021/07/01 04:24:25;;;;;;;20.50;9.48;;;;;;;;;;5028572;28;20631;-71
2021/07/01 04:26:50;;;;;;;17.90;9.55;;;;;;;;;;5026603;28;20736;-71
2021/07/01 04:29:16;;;;;;;19.70;9.80;;;;;;;;;;5027792;28;20214;-71
2021/07/01 04:31:41;;;;;;;20.17;9.85;;;;;;;;;;5031009;28;20185;-72
2021/07/01 04:34:07;;;;;;;17.98;10.73;;;;;;;;;;5025515;28;20210;-72
2021/07/01 04:36:32;;;;;;;20.20;10.77;;;;;;;;;;5026773;28;20174;-71
2021/07/01 04:38:57;;;;;;;23.98;9.98;;;;;;;;;;5020187;28;20205;-71
2021/07/01 04:41:23;;;;;;;24.90;10.02;;;;;;;;;;5025095;28;20248;-71
2021/07/01 04:43:48;;;;;;;23.88;10.27;;;;;;;;;;5024237;28;20207;-71
2021/07/01 04:46:14;;;;;;;21.77;9.70;;;;;;;;;;5025267;28;20190;-71
2021/07/01 04:48:40;;;;;;;18.88;9.98;;;;;;;;;;5017367;28;20569;-71
2021/07/01 04:51:05;;;;;;;24.17;11.73;;;;;;;;;;5023231;28;20656;-71
2021/07/01 04:53:30;;;;;;;19.38;9.43;;;;;;;;;;5029608;28;20189;-71
2021/07/01 04:55:55;;;;;;;22.58;11.13;;;;;;;;;;5028631;28;20174;-70
2021/07/01 04:58:21;;;;;;;18.93;10.83;;;;;;;;;;5029767;28;20191;-72
2021/07/01 05:00:48;;;;;;;18.27;8.65;;;;;;;;;;5027657;28;20428;-71
2021/07/01 05:03:13;;;;;;;15.68;9.40;;;;;;;;;;5026939;28;20179;-71
2021/07/01 05:05:38;;;;;;;17.67;9.63;;;;;;;;;;5023011;28;20212;-71
2021/07/01 05:08:03;;;;;;;24.48;11.18;;;;;;;;;;5025745;28;20206;-72
2021/07/01 05:10:28;;;;;;;20.33;9.55;;;;;;;;;;5028299;28;20652;-73
2021/07/01 05:12:55;;;;;;;20.48;9.82;;;;;;;;;;5030621;28;20181;-71
2021/07/01 05:15:22;;;;;;;17.48;9.88;;;;;;;;;;5028332;28;20289;-73
2021/07/01 05:17:47;;;;;;;19.58;10.32;;;;;;;;;;5025320;28;20166;-73
2021/07/01 05:20:12;;;;;;;18.57;9.90;;;;;;;;;;5029823;28;20648;-71
2021/07/01 05:22:38;;;;;;;21.35;9.38;;;;;;;;;;5031144;28;20507;-71
2021/07/01 05:25:03;;;;;;;16.17;9.23;;;;;;;;;;5026116;28;20320;-72
2021/07/01 05:27:28;;;;;;;16.80;9.05;;;;;;;;;;5028764;28;20432;-71
2021/07/01 05:29:54;;;;;;;14.43;7.93;;;;;;;;;;5027873;28;20245;-71
2021/07/01 05:32:19;;;;;;;21.63;8.85;;;;;;;;;;5030014;28;20174;-71
2021/07/01 05:34:44;;;;;;;16.00;9.05;;;;;;;;;;5028582;28;20217;-71
2021/07/01 05:37:10;;;;;;;18.00;10.35;;;;;;;;;;5025221;28;20661;-72
2021/07/01 05:39:35;;;;;;;16.20;9.27;;;;;;;;;;5029192;28;20672;-72
2021/07/01 05:42:00;;;;;;;18.05;9.25;;;;;;;;;;5022619;28;20202;-72
2021/07/01 05:44:25;;;;;;;21.85;9.32;;;;;;;;;;5029812;28;20680;-71
2021/07/01 05:46:50;;;;;;;16.85;8.52;;;;;;;;;;5029452;28;20187;-72
2021/07/01 05:49:16;;;;;;;15.30;8.35;;;;;;;;;;5030884;28;20210;-72
2021/07/01 05:51:43;;;;;;;12.95;7.45;;;;;;;;;;5031261;28;20186;-72
2021/07/01 05:56:39;;;;;;;17.38;7.53;;;;;;;;;;5025153;28;20186;-72
2021/07/01 05:59:08;;;;;;;13.15;7.68;;;;;;;;;;5027474;28;20246;-72
2021/07/01 06:01:34;;;;;;;14.13;7.43;;;;;;;;;;5025035;28;20644;-73
2021/07/01 06:03:59;;;;;;;17.67;7.95;;;;;;;;;;5022577;28;20213;-71
2021/07/01 06:06:25;;;;;;;10.80;6.78;;;;;;;;;;5001849;28;20333;-71
2021/07/01 06:08:50;;;;;;;17.45;7.85;;;;;;;;;;5024092;28;20205;-71
2021/07/01 06:11:16;;;;;;;10.20;6.20;;;;;;;;;;5029633;28;20193;-72
2021/07/01 06:13:42;;;;;;;13.32;6.85;;;;;;;;;;5029712;28;20798;-71
2021/07/01 06:16:11;;;;;;;11.73;6.15;;;;;;;;;;5023741;28;20179;-72
2021/07/01 06:18:36;;;;;;;11.25;6.20;;;;;;;;;;5021367;28;20182;-72
2021/07/01 06:21:01;;;;;;;10.07;5.75;;;;;;;;;;5027136;28;20566;-72
2021/07/01 06:23:27;;;;;;;13.63;6.85;;;;;;;;;;5018889;28;20213;-72
2021/07/01 06:25:54;;;;;;;18.02;6.00;;;;;;;;;;5025518;28;20193;-71
2021/07/01 06:28:20;;;;;;;10.75;5.50;;;;;;;;;;5027664;28;20197;-71
2021/07/01 06:30:46;;;;;;;19.90;7.20;;;;;;;;;;5021730;28;20583;-71
2021/07/01 06:33:11;;;;;;;12.98;6.38;;;;;;;;;;5023808;28;20426;-72
2021/07/01 06:35:37;;;;;;;17.55;6.85;;;;;;;;;;5023807;28;20266;-71
2021/07/01 06:38:07;;;;;;;14.48;7.40;;;;;;;;;;5021258;28;20193;-71
2021/07/01 06:40:33;;;;;;;12.60;6.30;;;;;;;;;;5010298;28;20186;-72
2021/07/01 06:42:59;;;;;;;10.43;5.82;;;;;;;;;;5019094;28;20183;-72
2021/07/01 06:45:24;;;;;;;15.00;7.18;;;;;;;;;;5021159;28;20213;-71
2021/07/01 06:47:51;;;;;;;14.27;7.72;;;;;;;;;;5020663;28;20640;-71
2021/07/01 06:50:18;;;;;;;16.40;8.35;;;;;;;;;;5021190;28;20186;-71
2021/07/01 06:52:44;;;;;;;15.38;6.88;;;;;;;;;;5027195;28;20202;-71
2021/07/01 06:55:11;;;;;;;11.05;6.22;;;;;;;;;;5020566;28;20252;-72
2021/07/01 06:57:36;;;;;;;17.13;8.05;;;;;;;;;;5018799;28;20232;-72
2021/07/01 07:00:03;;;;;;;18.17;7.20;;;;;;;;;;5018741;28;20190;-71
2021/07/01 07:02:35;;;;;;;15.82;7.82;;;;;;;;;;5012101;28;20248;-71
2021/07/01 07:05:04;;;;;;;15.15;7.88;;;;;;;;;;5026164;28;20206;-72
2021/07/01 07:07:30;;;;;;;19.63;8.50;;;;;;;;;;5023683;28;20596;-71
2021/07/01 07:09:57;;;;;;;21.15;8.63;;;;;;;;;;5006028;28;20597;-72
2021/07/01 07:12:22;;;;;;;20.88;9.35;;;;;;;;;;5019749;28;20201;-72
2021/07/01 07:14:47;;;;;;;19.77;8.67;;;;;;;;;;5020572;28;20194;-72
2021/07/01 07:17:12;;;;;;;25.60;9.85;;;;;;;;;;5008582;28;20423;-71
2021/07/01 07:19:42;;;;;;;23.08;9.70;;;;;;;;;;5010775;28;20200;-71
2021/07/01 07:22:08;;;;;;;20.13;9.00;;;;;;;;;;5007845;28;20178;-71
2021/07/01 07:24:35;;;;;;;23.42;9.35;;;;;;;;;;5015703;28;20292;-71
2021/07/01 07:27:02;;;;;;;21.63;9.40;;;;;;;;;;5022847;28;20194;-71
2021/07/01 07:29:32;;;;;;;18.95;8.68;;;;;;;;;;5038369;28;20248;-71
2021/07/01 07:31:59;;;;;;;20.40;8.85;;;;;;;;;;5036167;28;20186;-71
2021/07/01 07:34:24;;;;;;;20.45;9.00;;;;;;;;;;5030022;28;20285;-72
2021/07/01 07:36:50;;;;;;;23.13;9.60;;;;;;;;;;5010125;28;20186;-72
2021/07/01 07:39:15;;;;;;;19.90;9.32;;;;;;;;;;5016544;28;20191;-72
2021/07/01 07:41:41;;;;;;;18.00;9.97;;;;;;;;;;5020373;28;20186;-74
2021/07/01 07:44:06;;;;;;;21.05;10.15;;;;;;;;;;5037393;28;20455;-71
2021/07/01 07:46:32;;;;;;;19.45;9.82;;;;;;;;;;5035185;28;20182;-73
2021/07/01 07:48:58;;;;;;;25.58;10.88;;;;;;;;;;5033114;28;20204;-72
2021/07/01 07:51:25;;;;;;;25.25;10.73;;;;;;;;;;5024179;28;20170;-72
2021/07/01 07:53:55;;;;;;;23.65;10.15;;;;;;;;;;5023032;28;20205;-73
2021/07/01 07:56:27;;;;;;;24.17;12.00;;;;;;;;;;5010158;28;20316;-73
2021/07/01 07:58:54;;;;;;;25.42;11.23;;;;;;;;;;5019207;28;20182;-72
2021/07/01 08:01:19;;;;;;;22.90;10.27;;;;;;;;;;5018424;28;20210;-71
2021/07/01 08:03:46;;;;;;;22.67;11.00;;;;;;;;;;5017859;28;20241;-72
2021/07/01 08:06:11;;;;;;;28.65;10.52;;;;;;;;;;5016185;28;21614;-72
2021/07/01 08:08:38;;;;;;;21.85;10.82;;;;;;;;;;5018090;28;20642;-72
2021/07/01 08:11:07;;;;;;;27.27;10.75;;;;;;;;;;5016146;28;20665;-72
2021/07/01 08:13:32;;;;;;;24.08;10.95;;;;;;;;;;5014191;28;20289;-73
2021/07/01 08:15:58;;;;;;;21.45;10.07;;;;;;;;;;5016655;28;20318;-73
2021/07/01 08:18:26;;;;;;;21.13;10.40;;;;;;;;;;5017058;28;20189;-73
2021/07/01 08:20:52;;;;;;;24.48;10.02;;;;;;;;;;5015894;28;20183;-73
2021/07/01 08:23:18;;;;;;;23.35;10.77;;;;;;;;;;5013768;28;20183;-72
2021/07/01 08:25:43;;;;;;;24.15;10.00;;;;;;;;;;5017128;28;20220;-71
2021/07/01 08:28:10;;;;;;;26.02;11.52;;;;;;;;;;5013707;28;20297;-72
2021/07/01 08:30:35;;;;;;;26.98;10.35;;;;;;;;;;5012264;28;20355;-72
2021/07/01 08:33:00;;;;;;;22.10;10.37;;;;;;;;;;5013606;28;20182;-72
2021/07/01 08:35:26;;;;;;;23.98;9.90;;;;;;;;;;5016552;28;20460;-71
2021/07/01 08:37:53;;;;;;;18.15;8.95;;;;;;;;;;5015016;28;20176;-72
2021/07/01 08:40:19;;;;;;;22.17;7.93;;;;;;;;;;5017164;28;20262;-71
2021/07/01 08:42:45;;;;;;;23.45;7.88;;;;;;;;;;5014489;28;20201;-72
2021/07/01 08:45:11;;;;;;;15.73;7.63;;;;;;;;;;5014125;28;20195;-72
2021/07/01 08:47:43;;;;;;;18.00;7.20;;;;;;;;;;5012687;28;20558;-71
2021/07/01 08:50:11;;;;;;;19.77;7.60;;;;;;;;;;5015566;28;20240;-72
2021/07/01 08:52:55;;;;;;;16.30;7.97;;;;;;;;;;5013279;28;20182;-72
2021/07/01 08:55:24;;;;;;;15.05;7.40;;;;;;;;;;5019074;28;20708;-72
2021/07/01 08:57:53;;;;;;;20.85;7.55;;;;;;;;;;5013154;28;20191;-72
2021/07/01 09:00:19;;;;;;;18.35;7.38;;;;;;;;;;5010953;28;20174;-72
2021/07/01 09:02:50;;;;;;;23.02;8.68;;;;;;;;;;5012010;28;20904;-72
2021/07/01 09:05:17;;;;;;;11.75;5.70;;;;;;;;;;5016905;28;20198;-72
2021/07/01 09:07:50;;;;;;;14.63;7.20;;;;;;;;;;5014896;28;20179;-72
2021/07/01 09:10:15;;;;;;;15.55;6.53;;;;;;;;;;5014477;28;21184;-72
2021/07/01 09:12:42;;;;;;;16.95;7.20;;;;;;;;;;5013216;28;20187;-70
2021/07/01 09:15:10;;;;;;;16.27;7.88;;;;;;;;;;5012976;28;20284;-72
2021/07/01 09:17:36;;;;;;;12.57;6.30;;;;;;;;;;5014740;28;20185;-72
2021/07/01 09:20:06;;;;;;;15.95;7.38;;;;;;;;;;5012515;28;20190;-72
2021/07/01 09:22:31;;;;;;;16.55;6.40;;;;;;;;;;5011849;28;20205;-72
2021/07/01 09:24:57;;;;;;;14.88;5.97;;;;;;;;;;5015333;28;20692;-71
2021/07/01 09:27:23;;;;;;;15.50;6.55;;;;;;;;;;5009844;28;20205;-71
2021/07/01 09:29:49;;;;;;;10.70;5.80;;;;;;;;;;5013839;28;20234;-72
2021/07/01 09:32:15;;;;;;;12.00;5.60;;;;;;;;;;5010429;28;20644;-71
2021/07/01 09:34:42;;;;;;;12.75;6.90;;;;;;;;;;5011800;28;20198;-70
2021/07/01 09:37:08;;;;;;;12.75;5.70;;;;;;;;;;5010325;28;20182;-70
2021/07/01 09:39:33;;;;;;;11.95;5.97;;;;;;;;;;5016186;28;20855;-71
2021/07/01 09:42:02;;;;;;;14.02;5.88;;;;;;;;;;5012279;28;20656;-72
2021/07/01 09:44:29;;;;;;;9.60;5.20;;;;;;;;;;5011156;28;20289;-71
2021/07/01 09:46:58;;;;;;;8.63;5.07;;;;;;;;;;5010037;28;20174;-72
2021/07/01 09:49:28;;;;;;;9.85;5.05;;;;;;;;;;5007982;28;20209;-71
2021/07/01 09:51:56;;;;;;;9.75;4.90;;;;;;;;;;5013396;28;20186;-73
2021/07/01 09:54:22;;;;;;;8.52;5.03;;;;;;;;;;5015645;28;20289;-72
2021/07/01 09:56:50;;;;;;;9.07;4.78;;;;;;;;;;5009928;28;20178;-72
2021/07/01 09:59:33;;;;;;;11.68;4.93;;;;;;;;;;5007270;28;20232;-72
2021/07/01 10:02:15;;;;;;;10.68;5.00;;;;;;;;;;5008868;28;22422;-71
2021/07/01 10:04:44;;;;;;;11.40;5.10;;;;;;;;;;5010004;28;20618;-72
2021/07/01 10:07:10;;;;;;;9.20;4.45;;;;;;;;;;5014036;28;20494;-73
2021/07/01 10:09:35;;;;;;;13.70;5.82;;;;;;;;;;5009877;28;20210;-72
2021/07/01 10:12:01;;;;;;;11.07;5.07;;;;;;;;;;5010690;28;20844;-72
2021/07/01 10:14:36;;;;;;;10.43;4.57;;;;;;;;;;5011294;28;20447;-72
2021/07/01 10:17:11;;;;;;;9.70;5.18;;;;;;;;;;5014014;28;20169;-72
2021/07/01 10:19:37;;;;;;;10.93;4.95;;;;;;;;;;5011105;28;20186;-71
2021/07/01 10:22:06;;;;;;;13.88;5.05;;;;;;;;;;5009176;28;20191;-72
2021/07/01 10:24:33;;;;;;;9.75;5.00;;;;;;;;;;5010339;28;20206;-72
2021/07/01 10:26:59;;;;;;;10.02;4.78;;;;;;;;;;5009416;28;20286;-72
2021/07/01 10:29:34;;;;;;;8.05;4.80;;;;;;;;;;5008658;28;20771;-72
2021/07/01 10:32:04;;;;;;;10.05;4.35;;;;;;;;;;5010147;28;20216;-71
2021/07/01 10:34:31;;;;;;;8.50;4.75;;;;;;;;;;5011552;28;20197;-70
2021/07/01 10:37:32;;;;;;;8.60;4.88;;;;;;;;;;5010284;28;20261;-72
2021/07/01 10:39:57;;;;;;;9.73;4.55;;;;;;;;;;4987761;28;20187;-71
2021/07/01 10:42:23;;;;;;;10.60;5.18;;;;;;;;;;5006557;28;20222;-72
2021/07/01 10:44:48;;;;;;;11.55;5.10;;;;;;;;;;5007209;28;21011;-72
2021/07/01 10:47:27;;;;;;;11.20;4.97;;;;;;;;;;5009858;28;20183;-71
2021/07/01 10:49:52;;;;;;;12.20;4.97;;;;;;;;;;5010378;28;20256;-71
2021/07/01 10:52:18;;;;;;;14.35;5.40;;;;;;;;;;5011878;28;20660;-71
2021/07/01 10:54:59;;;;;;;13.90;5.15;;;;;;;;;;5012642;28;20273;-71
2021/07/01 10:57:29;;;;;;;15.35;7.25;;;;;;;;;;5008843;28;20197;-72
2021/07/01 10:59:54;;;;;;;11.68;5.68;;;;;;;;;;5013928;28;20179;-71
2021/07/01 11:02:24;;;;;;;10.65;5.15;;;;;;;;;;5024864;28;20174;-71
2021/07/01 11:04:50;;;;;;;13.98;5.45;;;;;;;;;;5010134;28;20217;-71
2021/07/01 11:07:17;;;;;;;11.30;5.88;;;;;;;;;;5010604;28;20465;-71
2021/07/01 11:09:43;;;;;;;13.23;5.40;;;;;;;;;;5017673;28;20756;-71
2021/07/01 11:12:08;;;;;;;18.83;6.57;;;;;;;;;;5010798;28;20182;-71
2021/07/01 11:14:38;;;;;;;14.73;5.70;;;;;;;;;;5010565;28;20706;-71
2021/07/01 11:17:03;;;;;;;13.27;6.13;;;;;;;;;;5013854;28;20224;-72
2021/07/01 11:19:37;;;;;;;21.10;5.90;;;;;;;;;;5009980;28;20182;-71
2021/07/01 11:22:02;;;;;;;20.10;6.45;;;;;;;;;;5011281;28;20943;-71
2021/07/01 11:24:28;;;;;;;12.25;5.45;;;;;;;;;;5012223;28;20296;-71
2021/07/01 11:26:55;;;;;;;15.15;6.63;;;;;;;;;;5009159;28;20175;-71
2021/07/01 11:29:39;;;;;;;14.45;6.47;;;;;;;;;;5013632;28;20299;-72
2021/07/01 11:32:16;;;;;;;13.23;6.10;;;;;;;;;;5009779;28;20189;-72
2021/07/01 11:34:43;;;;;;;16.77;6.13;;;;;;;;;;5015314;28;21115;-72
2021/07/01 11:37:09;;;;;;;21.02;7.25;;;;;;;;;;5013083;28;20182;-71
2021/07/01 11:39:34;;;;;;;15.90;5.70;;;;;;;;;;5019767;28;20197;-71
2021/07/01 11:42:04;;;;;;;19.05;6.60;;;;;;;;;;5016473;28;20202;-73
2021/07/01 11:44:30;;;;;;;14.30;6.85;;;;;;;;;;5016284;28;20217;-72
2021/07/01 11:46:56;;;;;;;14.98;6.53;;;;;;;;;;5015197;28;20187;-72
2021/07/01 11:49:22;;;;;;;15.75;6.25;;;;;;;;;;5019144;28;20448;-72
2021/07/01 11:51:47;;;;;;;17.92;6.05;;;;;;;;;;5014035;28;20672;-71
2021/07/01 11:54:12;;;;;;;15.70;5.57;;;;;;;;;;5014440;28;20622;-72
2021/07/01 11:56:53;;;;;;;17.40;6.78;;;;;;;;;;5016626;28;20603;-72
2021/07/01 11:59:19;;;;;;;15.43;6.80;;;;;;;;;;5018647;28;20181;-72
2021/07/01 12:01:45;;;;;;;15.75;6.60;;;;;;;;;;5032665;28;20233;-72
2021/07/01 12:04:11;;;;;;;20.83;7.55;;;;;;;;;;5035024;28;20753;-71
2021/07/01 12:06:55;;;;;;;21.48;7.03;;;;;;;;;;5040859;28;20178;-72
2021/07/01 12:09:21;;;;;;;18.25;7.28;;;;;;;;;;5037447;28;20198;-71
2021/07/01 12:12:04;;;;;;;16.30;6.50;;;;;;;;;;5035860;28;20174;-71
2021/07/01 12:14:33;;;;;;;20.48;7.10;;;;;;;;;;5015671;28;20213;-73
2021/07/01 12:16:58;;;;;;;18.65;6.97;;;;;;;;;;5017141;28;20185;-72
2021/07/01 12:19:42;;;;;;;14.75;7.40;;;;;;;;;;5026798;28;20178;-72
2021/07/01 12:22:07;;;;;;;20.88;6.95;;;;;;;;;;5037929;28;20171;-71
2021/07/01 12:24:33;;;;;;;15.65;6.65;;;;;;;;;;5037940;28;20222;-71
2021/07/01 12:26:58;;;;;;;16.03;6.53;;;;;;;;;;5035082;28;20175;-72
2021/07/01 12:29:42;;;;;;;19.95;5.75;;;;;;;;;;5035675;28;20687;-72
2021/07/01 12:32:23;;;;;;;14.23;5.95;;;;;;;;;;5017111;28;20187;-72
2021/07/01 12:34:49;;;;;;;17.80;6.85;;;;;;;;;;5013925;28;20202;-71
2021/07/01 12:37:14;;;;;;;17.25;7.47;;;;;;;;;;5013588;28;20197;-72
2021/07/01 12:39:39;;;;;;;12.60;5.75;;;;;;;;;;5019742;28;20641;-71
2021/07/01 12:42:05;;;;;;;15.80;6.40;;;;;;;;;;5017512;28;20199;-71
2021/07/01 12:44:30;;;;;;;16.50;6.32;;;;;;;;;;5010981;28;20289;-71
2021/07/01 12:47:05;;;;;;;16.23;6.35;;;;;;;;;;5013139;28;20182;-72
2021/07/01 12:49:34;;;;;;;20.42;6.63;;;;;;;;;;5012549;28;20228;-71
2021/07/01 12:52:06;;;;;;;29.23;7.60;;;;;;;;;;5014722;28;20179;-71
2021/07/01 12:54:31;;;;;;;20.15;6.95;;;;;;;;;;5013892;28;20194;-72
2021/07/01 12:56:56;;;;;;;22.95;7.05;;;;;;;;;;5012166;28;20249;-71
2021/07/01 12:59:22;;;;;;;20.02;7.93;;;;;;;;;;5010327;28;20934;-71
2021/07/01 13:01:48;;;;;;;20.35;7.25;;;;;;;;;;5011748;28;20299;-71
2021/07/01 13:04:20;;;;;;;16.65;6.20;;;;;;;;;;5015050;28;20698;-71
2021/07/01 13:06:46;;;;;;;15.68;6.40;;;;;;;;;;5011456;28;20194;-71
2021/07/01 13:09:25;;;;;;;19.45;6.85;;;;;;;;;;5011922;28;21762;-71
2021/07/01 13:11:51;;;;;;;16.65;6.53;;;;;;;;;;5016050;28;20194;-71
2021/07/01 13:14:16;;;;;;;19.23;6.67;;;;;;;;;;5015163;28;20852;-72
2021/07/01 13:16:41;;;;;;;18.58;6.50;;;;;;;;;;5012468;28;20427;-71
2021/07/01 13:19:19;;;;;;;13.95;6.35;;;;;;;;;;5012740;28;20225;-71
2021/07/01 13:21:50;;;;;;;17.35;6.00;;;;;;;;;;5012753;28;20225;-72
2021/07/01 13:24:19;;;;;;;15.60;6.80;;;;;;;;;;5014560;28;20217;-72
2021/07/01 13:26:45;;;;;;;13.43;5.85;;;;;;;;;;5017658;28;20191;-71
2021/07/01 13:29:10;;;;;;;13.48;6.18;;;;;;;;;;5016696;28;20688;-72
2021/07/01 13:31:35;;;;;;;15.25;6.88;;;;;;;;;;5017019;28;20241;-72
2021/07/01 13:34:04;;;;;;;17.55;6.43;;;;;;;;;;5010009;28;20210;-72
2021/07/01 13:36:29;;;;;;;18.77;6.30;;;;;;;;;;5012227;28;20792;-72
2021/07/01 13:38:54;;;;;;;18.17;6.55;;;;;;;;;;5013094;28;20275;-72
2021/07/01 13:41:25;;;;;;;14.93;6.33;;;;;;;;;;5014392;28;20876;-72
2021/07/01 13:43:50;;;;;;;16.15;7.22;;;;;;;;;;5017279;28;20455;-72
2021/07/01 13:46:19;;;;;;;16.77;6.65;;;;;;;;;;5011994;28;20416;-72
2021/07/01 13:48:44;;;;;;;17.67;6.75;;;;;;;;;;5011199;28;20238;-72
2021/07/01 13:51:10;;;;;;;15.80;5.93;;;;;;;;;;5011422;28;20279;-72
2021/07/01 13:53:36;;;;;;;19.40;7.10;;;;;;;;;;5013368;28;20626;-71
2021/07/01 13:56:03;;;;;;;16.90;6.22;;;;;;;;;;5012393;28;20174;-72
2021/07/01 13:58:29;;;;;;;16.70;6.78;;;;;;;;;;5013605;28;20193;-72
2021/07/01 14:00:56;;;;;;;12.23;6.03;;;;;;;;;;5012137;28;20885;-72
2021/07/01 14:03:28;;;;;;;14.07;6.82;;;;;;;;;;5014166;28;20178;-72
2021/07/01 14:06:00;;;;;;;15.30;6.55;;;;;;;;;;5012664;28;20178;-72
2021/07/01 14:08:27;;;;;;;14.82;6.05;;;;;;;;;;5014189;28;20779;-72
2021/07/01 14:10:57;;;;;;;13.57;5.85;;;;;;;;;;5013465;28;20265;-72
2021/07/01 14:13:23;;;;;;;14.52;5.65;;;;;;;;;;5012310;28;21038;-73
2021/07/01 14:15:48;;;;;;;11.23;5.47;;;;;;;;;;5012205;28;21505;-73
2021/07/01 14:18:13;;;;;;;12.07;5.50;;;;;;;;;;5013382;28;20675;-72
2021/07/01 14:20:39;;;;;;;14.30;6.38;;;;;;;;;;5010960;28;20182;-72
2021/07/01 14:23:16;;;;;;;18.10;6.07;;;;;;;;;;5008848;28;20644;-73
2021/07/01 14:25:41;;;;;;;17.45;6.82;;;;;;;;;;5008865;28;20209;-72
2021/07/01 14:28:08;;;;;;;19.10;6.93;;;;;;;;;;5011912;28;20565;-73
2021/07/01 14:30:44;;;;;;;15.43;6.10;;;;;;;;;;5009035;28;20956;-72
2021/07/01 14:33:27;;;;;;;13.27;6.43;;;;;;;;;;5013563;28;20188;-71
2021/07/01 14:36:00;;;;;;;11.32;5.65;;;;;;;;;;5011183;28;20186;-71
2021/07/01 14:38:26;;;;;;;13.40;5.95;;;;;;;;;;5012704;28;20679;-72